João Fonseca

Scout - Fluminense
2 Sep 2027
Donnerstag
Verarbeitung

Persönlichkeit

Anpassungsfähigkeit (16) Ehrgeiz (16) Kontroverse (3) Loyalität (12) Druck (14) Professionalität (17) Fairness (14) Temperament (7)

Profil

Trainerstil Demokratisch
Lizenz Kontinentale Pro
Entschlossenheit 8
Menschenführung 6
Motivation 7
Disziplin 10
Arbeitszufriedenheit
57%
Ermüdung
0%
Rolle Scout
Gehalt 32.7K p/W
Vertrag 14.03.2028

Leistung

Verhalten Gut
Trainingseffektivität
33%
Spielerentwicklung
35%
Verletzungsprävention
30%
Taktische Umsetzung
60%

Letzte Ereignisse

Nahm an einer Scouting-Besprechung teil jetzt
Empfahl ein Transferziel jetzt
Nahm an einer Scouting-Besprechung teil 7T her
Empfahl ein Transferziel 7T her
Empfahl ein Transferziel 7T her
Empfahl ein Transferziel 7T her
Empfahl ein Transferziel 14T her
Empfahl ein Transferziel 14T her

Aktuell beobachtet

104
Spieler Verein Status Fähigkeit Vertrauen Beobachtet Zuletzt beobachtet Letzte Stimme
Pedro Martins São Paulo Aktiv 102 / 112 65% 1 12.07.2027 Befürworten
Jonathan Calleri Sport Recife Bericht bereit 127 / 126 65% 1 06.06.2027 Befürworten
Dudu Vitória Aktiv 115 / 121 65% 1 03.06.2027 Befürworten
Razvan Balasa Crvena Zvezda Aktiv 150 / 152 40% 4 31.05.2027 -
Francisco Moura Lusitânia Lourosa Aktiv 127 / 143 40% 2 21.12.2026 -
Pau Víctor AVS Aktiv 146 / 130 40% 7 14.12.2026 -
Barış Alper Yılmaz Galatasaray Aktiv 152 / 157 40% 6 30.11.2026 -
Giovanni Simeone Torino Aktiv 149 / 148 40% 1 30.11.2026 -
Ansu Fati Monaco Aktiv 148 / 140 40% 1 29.11.2026 -
Ismaïla Sarr Crystal Palace Aktiv 145 / 148 40% 1 29.11.2026 -
Dodi Lukébakio Benfica Aktiv 136 / 143 40% 5 28.11.2026 -
Esteban Lepaul Stade Rennais Aktiv 130 / 126 40% 1 28.11.2026 -
Leandro Barreiro Benfica Aktiv 140 / 141 40% 2 27.11.2026 Mehr Infos nötig
Geny Sporting CP Aktiv 144 / 148 40% 2 27.11.2026 Mehr Infos nötig
Pepê Porto Aktiv 148 / 150 40% 1 26.11.2026 -
Gabriel Jesus Barcelona Aktiv 158 / 161 40% 5 22.11.2026 -
Marco Asensio Fenerbahce Aktiv 153 / 163 40% 1 22.11.2026 -
William Gomes Porto Aktiv 146 / 142 40% 2 21.11.2026 Mehr Infos nötig
Renan Lodi Atlético Mineiro Aktiv 140 / 142 40% 3 21.11.2026 -
Jesús Ricardo Angulo Toluca Aktiv 128 / 128 40% 2 21.11.2026 -
Lucas Veríssimo Santos Aktiv 141 / 133 40% 2 21.11.2026 -
William Cruzeiro Aktiv 137 / 128 40% 2 20.11.2026 -
Luís Esteves Atlas Aktiv 125 / 122 40% 2 20.11.2026 -
Gonçalo Inácio Sporting CP Aktiv 156 / 149 40% 1 19.11.2026 -
Diego Rossi Monterrey Aktiv 132 / 129 40% 1 19.11.2026 -
Nicolò Zaniolo Udinese Aktiv 136 / 150 40% 1 19.11.2026 -
Randal Kolo Muani Juventus Aktiv 148 / 140 40% 3 17.11.2026 -
Jens Odgaard Bologna Aktiv 146 / 128 40% 1 17.11.2026 -
Víctor Gómez Braga Aktiv 148 / 138 40% 3 16.11.2026 -
Matheus Pereira Cruzeiro Aktiv 137 / 138 40% 1 16.11.2026 -
Leon Goretzka Aston Villa Aktiv 161 / 147 40% 2 14.11.2026 -
Sikou Niakaté Braga Aktiv 127 / 143 40% 1 14.11.2026 -
Petar Musa Adana Demirspor Aktiv 129 / 133 40% 3 13.11.2026 -
Heorhii Sudakov Benfica Aktiv 136 / 154 40% 5 12.11.2026 -
Tariq Lamptey Queens Park Rangers Aktiv 128 / 125 40% 1 11.11.2026 -
Dominic Calvert-Lewin Leeds United Aktiv 139 / 132 40% 7 08.11.2026 -
Romelu Castagne KV Oostende Aktiv 136 / 135 40% 5 08.11.2026 -
Christian Krasnodar Aktiv 132 / 136 40% 1 07.11.2026 -
Youssef En-Nesyri Al-Ittihad Aktiv 142 / 148 40% 4 04.11.2026 -
Dávid Strelec Middlesbrough Aktiv 128 / 138 40% 1 04.11.2026 -
Marcos Antonio Sport Recife Aktiv 141 / 138 40% 2 01.11.2026 -
Taty Castellanos West Ham United Aktiv 143 / 141 40% 1 01.11.2026 -
Andreas Pereira Palmeiras Aktiv 145 / 132 40% 1 01.11.2026 -
Gérson Cruzeiro Aktiv 134 / 136 40% 1 01.11.2026 -
Saša Lukić Ipswich Town Aktiv 149 / 149 40% 1 29.10.2026 -
Caio Alexandre Bahia Aktiv 142 / 132 40% 1 29.10.2026 -
Sander Berge Fulham Aktiv 135 / 142 40% 1 29.10.2026 -
Andrés Gómez Vasco da Gama Aktiv 125 / 131 40% 1 28.10.2026 -
Steven Bergwijn Al-Ittihad Aktiv 154 / 136 40% 3 27.10.2026 -
Santiago Castro AS Roma Aktiv 133 / 147 40% 1 27.10.2026 -
Fabrício Bruno Cruzeiro Aktiv 130 / 140 40% 1 25.10.2026 -
Danilo Botafogo Aktiv 131 / 137 40% 1 25.10.2026 -
Roberto Fernández Braga Aktiv 150 / 129 40% 5 19.10.2026 -
Leo Ceara Kashima Antlers Aktiv 123 / 125 40% 1 19.10.2026 -
Rômulo RB Leipzig Aktiv 152 / 134 40% 1 16.10.2026 -
Brian Brobbey Sunderland Aktiv 127 / 135 40% 3 15.10.2026 -
Raheem Sterling Feyenoord Aktiv 137 / 143 40% 1 14.10.2026 -
Félix Lemaréchal Club Brugge Aktiv 128 / 143 40% 1 14.10.2026 -
Soufiane Rahimi Guadalajara Aktiv 134 / 136 40% 2 13.10.2026 -
Jean-Philippe Mateta Crystal Palace Aktiv 149 / 150 40% 4 12.10.2026 -
Ángel Correa River Plate Aktiv 143 / 147 40% 3 12.10.2026 -
Nuno Santos Sporting CP Aktiv 150 / 148 40% 2 12.10.2026 -
Andrea Pinamonti Lazio Aktiv 125 / 131 40% 2 12.10.2026 -
Alexey Miranchuk St. Gallen Aktiv 130 / 132 40% 3 10.10.2026 -
Vangelis Pavlidis Twente Aktiv 149 / 151 40% 2 10.10.2026 -
Fotis Ioannidis Rio Ave Aktiv 141 / 124 40% 1 09.10.2026 -
Joaquín Panichelli Le Havre AC Aktiv 152 / 130 40% 2 08.10.2026 -
Gonçalo Ramos AC Milan Aktiv 144 / 151 40% 1 08.10.2026 -
Lewis Cook Bournemouth Aktiv 139 / 144 40% 1 06.10.2026 -
Jean Lucas Bahia Aktiv 128 / 126 40% 1 06.10.2026 -
Matías Fernández-Pardo Newcastle United Aktiv 138 / 145 40% 1 06.10.2026 -
Fredrik Aursnes Benfica Aktiv 158 / 144 40% 1 05.10.2026 -
Jørgen Strand Larsen Crystal Palace Aktiv 132 / 132 40% 1 01.10.2026 -
Yoan Bonny Inter Aktiv 152 / 146 40% 2 29.09.2026 -
Alberto Costa Porto Aktiv 138 / 133 40% 1 28.09.2026 -
Ivan Toney Al-Ahli Aktiv 163 / 160 40% 4 25.09.2026 -
Che Adams Torino Aktiv 128 / 136 40% 1 25.09.2026 -
Mateo Pellegrino Fiorentina Aktiv 132 / 134 40% 1 25.09.2026 -
Borja Sainz Fiorentina Aktiv 136 / 137 40% 2 22.09.2026 -
Noah Okafor Leeds United Aktiv 145 / 138 40% 1 20.09.2026 -
Gonzalo Fulham Aktiv 136 / 156 40% 1 17.09.2026 -
Arthur Santos Aktiv 140 / 138 40% 1 16.09.2026 -
Aníbal Moreno River Plate Aktiv 137 / 126 40% 1 16.09.2026 -
Agustín Palavecino Cruz Azul Aktiv 131 / 141 40% 1 15.09.2026 -
Carlos Vicente Birmingham Aktiv 145 / 146 40% 1 14.09.2026 -
Pablo Rosario Porto Aktiv 138 / 132 40% 1 09.09.2026 -
Breel Embolo Atlanta United FC Aktiv 131 / 138 40% 2 06.09.2026 -
Sergi Altimira Sporting CP Aktiv 125 / 127 40% 1 06.09.2026 -
Luis Sinisterra Cruzeiro Aktiv 131 / 136 40% 1 06.09.2026 -
Eddie Nketiah Crystal Palace Aktiv 127 / 150 40% 2 30.08.2026 -
Jhon Arias Palmeiras Aktiv 137 / 137 40% 1 30.08.2026 -
Thiago Brentford Aktiv 148 / 138 40% 1 30.08.2026 -
Kerem Aktürkoğlu Fenerbahce Aktiv 131 / 150 40% 1 30.08.2026 -
Amine Gouiri Olympique de Marseille Aktiv 138 / 134 40% 2 22.08.2026 -
Oussama Idrissi Pachuca Aktiv 136 / 142 40% 1 17.08.2026 -
Hwang In-Beom Porto Aktiv 137 / 134 40% 1 17.08.2026 -
Alexander Bah Benfica Aktiv 130 / 137 40% 1 16.08.2026 -
Jack Hinshelwood Brighton Aktiv 151 / 138 40% 1 15.08.2026 -
Gonçalo Guedes Real Sociedad Aktiv 152 / 135 40% 2 08.08.2026 -
Marcos Llorente Atlético Madrid Aktiv 149 / 165 40% 1 07.08.2026 -
Jorge De Frutos Rayo Vallecano Aktiv 148 / 152 40% 1 07.08.2026 -
Joshua Zirkzee Manchester United Aktiv 151 / 137 40% 1 07.08.2026 -
Ricardo Horta Braga Aktiv 141 / 135 40% 2 06.08.2026 -
Maximilian Beier Borussia Dortmund Aktiv 141 / 149 40% 2 03.08.2026 -